createdAt,value
2018-09-10T00:01:49.676Z,96238.65
2018-09-10T00:04:24.428Z,96240.66
2018-09-10T00:06:59.520Z,96232.38
2018-09-10T00:09:33.892Z,96231.97
2018-09-10T00:12:08.328Z,96226.58
2018-09-10T00:14:42.832Z,96231.97
2018-09-10T00:17:17.361Z,96227.02
2018-09-10T00:19:51.653Z,96227.20
2018-09-10T00:22:26.432Z,96227.39
2018-09-10T00:25:00.873Z,96232.83
2018-09-10T00:27:35.332Z,96233.25
2018-09-10T00:30:10.580Z,96233.52
2018-09-10T00:32:45.116Z,96232.13
2018-09-10T00:35:20.047Z,96232.40
2018-09-10T00:37:54.394Z,96229.09
2018-09-10T00:40:28.729Z,96225.05
2018-09-10T00:43:03.225Z,96225.86
2018-09-10T00:45:37.721Z,96220.39
2018-09-10T00:48:12.049Z,96224.48
2018-09-10T00:50:46.844Z,96219.63
2018-09-10T00:53:21.348Z,96218.52
2018-09-10T00:55:56.308Z,96220.82
2018-09-10T00:58:30.848Z,96229.67
2018-09-10T01:01:05.465Z,96222.89
2018-09-10T01:03:40.041Z,96224.73
2018-09-10T01:06:14.720Z,96216.47
2018-09-10T01:08:49.244Z,96217.66
2018-09-10T01:11:24.082Z,96219.16
2018-09-10T01:13:58.848Z,96214.73
2018-09-10T01:16:33.155Z,96212.37
2018-09-10T01:19:07.884Z,96215.95
2018-09-10T01:21:42.992Z,96218.21
2018-09-10T01:24:17.380Z,96219.83
2018-09-10T01:26:52.316Z,96227.86
2018-09-10T01:29:26.628Z,96220.87
2018-09-10T01:32:01.108Z,96218.21
2018-09-10T01:34:40.812Z,96219.31
2018-09-10T01:37:15.132Z,96225.34
2018-09-10T01:39:49.408Z,96227.47
2018-09-10T01:42:23.749Z,96228.96
2018-09-10T01:44:59.064Z,96231.20
2018-09-10T01:47:33.544Z,96236.31
2018-09-10T01:50:08.172Z,96229.47
2018-09-10T01:52:42.608Z,96230.13
2018-09-10T01:55:16.869Z,96229.09
2018-09-10T01:57:51.520Z,96223.36
2018-09-10T02:00:25.928Z,96224.05
2018-09-10T02:03:00.205Z,96225.86
2018-09-10T02:05:35.248Z,96224.77
2018-09-10T02:08:09.625Z,96222.78
2018-09-10T02:10:44.557Z,96222.97
2018-09-10T02:13:19.171Z,96219.42
2018-09-10T02:15:53.709Z,96210.72
2018-09-10T02:18:27.951Z,96213.02
2018-09-10T02:21:02.468Z,96211.89
2018-09-10T02:23:36.870Z,96211.09
2018-09-10T02:26:12.281Z,96205.83
2018-09-10T02:28:46.856Z,96202.66
2018-09-10T02:31:21.632Z,96199.30
2018-09-10T02:33:56.665Z,96196.56
2018-09-10T02:36:31.034Z,96198.23
2018-09-10T02:39:06.909Z,96201.79
2018-09-10T02:41:43.905Z,96200.30
2018-09-10T02:44:18.267Z,96205.02
2018-09-10T02:46:52.728Z,96207.94
2018-09-10T02:49:27.521Z,96213.53
2018-09-10T02:52:03.564Z,96212.23
2018-09-10T02:54:38.105Z,96207.40
2018-09-10T02:57:13.035Z,96212.56
2018-09-10T02:59:47.343Z,96203.98
2018-09-10T03:02:21.856Z,96211.56
2018-09-10T03:04:56.424Z,96208.82
2018-09-10T03:07:31.316Z,96204.77
2018-09-10T03:10:05.932Z,96202.00
2018-09-10T03:12:40.268Z,96200.08
2018-09-10T03:15:14.634Z,96197.96
2018-09-10T03:17:49.062Z,96198.59
2018-09-10T03:20:23.616Z,96198.02
2018-09-10T03:22:58.319Z,96194.36
2018-09-10T03:25:32.672Z,96200.94
2018-09-10T03:28:06.926Z,96193.97
2018-09-10T03:30:41.266Z,96200.00
2018-09-10T03:33:16.012Z,96196.63
2018-09-10T03:35:50.364Z,96203.00
2018-09-10T03:38:24.918Z,96197.33
2018-09-10T03:40:59.442Z,96194.09
2018-09-10T03:43:34.297Z,96190.86
2018-09-10T03:46:08.744Z,96198.55
2018-09-10T03:48:43.522Z,96193.72
2018-09-10T03:51:17.824Z,96194.89
2018-09-10T03:53:52.241Z,96204.87
2018-09-10T03:56:27.263Z,96201.14
2018-09-10T03:59:01.764Z,96210.29
2018-09-10T04:01:36.521Z,96209.16
2018-09-10T04:04:11.451Z,96214.06
2018-09-10T04:06:46.732Z,96218.66
2018-09-10T04:09:21.080Z,96217.35
2018-09-10T04:11:55.669Z,96214.55
2018-09-10T04:14:30.032Z,96212.90
2018-09-10T04:17:05.132Z,96218.52
2018-09-10T04:19:40.128Z,96217.89
2018-09-10T04:22:14.999Z,96219.15
2018-09-10T04:24:49.404Z,96224.91
2018-09-10T04:27:24.020Z,96228.50
2018-09-10T04:29:58.439Z,96237.33
2018-09-10T04:32:32.930Z,96235.57
2018-09-10T04:35:08.036Z,96240.51
2018-09-10T04:37:42.463Z,96241.67
2018-09-10T04:40:16.976Z,96249.50
2018-09-10T04:42:51.411Z,96253.91
2018-09-10T04:45:26.073Z,96258.00
2018-09-10T04:48:00.481Z,96258.31
2018-09-10T04:50:35.333Z,96263.70
2018-09-10T04:53:09.675Z,96268.25
2018-09-10T04:55:44.349Z,96264.34
2018-09-10T04:58:19.317Z,96273.14
2018-09-10T05:00:53.632Z,96266.94
2018-09-10T05:03:28.024Z,96274.23
2018-09-10T05:06:02.377Z,96265.38
2018-09-10T05:08:36.817Z,96274.64
2018-09-10T05:11:11.801Z,96280.22
2018-09-10T05:13:46.461Z,96280.36
2018-09-10T05:16:21.291Z,96284.58
2018-09-10T05:18:55.717Z,96284.22
2018-09-10T05:21:30.274Z,96281.44
2018-09-10T05:24:04.980Z,96281.39
2018-09-10T05:26:39.382Z,96286.02
2018-09-10T05:29:13.888Z,96284.54
2018-09-10T05:31:48.344Z,96289.63
2018-09-10T05:34:22.648Z,96295.78
2018-09-10T05:36:57.305Z,96294.13
2018-09-10T05:39:31.783Z,96292.36
2018-09-10T05:42:06.480Z,96299.15
2018-09-10T05:44:40.937Z,96307.11
2018-09-10T05:47:15.243Z,96309.81
2018-09-10T05:49:49.572Z,96306.61
2018-09-10T05:52:23.983Z,96312.94
2018-09-10T05:54:58.900Z,96318.92
2018-09-10T05:57:33.459Z,96322.73
2018-09-10T06:00:09.049Z,96324.61
2018-09-10T06:02:43.848Z,96322.27
2018-09-10T06:05:18.583Z,96326.38
2018-09-10T06:07:53.678Z,96326.40
2018-09-10T06:10:28.613Z,96328.13
2018-09-10T06:13:03.705Z,96328.98
2018-09-10T06:15:38.530Z,96336.83
2018-09-10T06:18:12.926Z,96339.98
2018-09-10T06:20:47.253Z,96339.42
2018-09-10T06:23:21.860Z,96334.91
2018-09-10T06:25:56.791Z,96328.74
2018-09-10T06:28:31.723Z,96329.95
2018-09-10T06:31:06.364Z,96324.70
2018-09-10T06:33:41.824Z,96317.98
2018-09-10T06:36:16.303Z,96323.23
2018-09-10T06:38:51.093Z,96323.59
2018-09-10T06:41:25.402Z,96326.36
2018-09-10T06:44:00.036Z,96333.83
2018-09-10T06:46:34.837Z,96334.44
2018-09-10T06:49:09.312Z,96328.48
2018-09-10T06:51:43.799Z,96331.75
2018-09-10T06:54:18.069Z,96331.84
2018-09-10T06:56:52.396Z,96326.97
2018-09-10T06:59:26.885Z,96324.61
2018-09-10T07:02:01.724Z,96327.47
2018-09-10T07:04:36.537Z,96329.44
2018-09-10T07:07:11.072Z,96319.81
2018-09-10T07:09:45.368Z,96319.86
2018-09-10T07:12:19.671Z,96325.45
2018-09-10T07:14:53.928Z,96328.70
2018-09-10T07:17:28.420Z,96322.17
2018-09-10T07:20:03.793Z,96329.55
2018-09-10T07:22:38.249Z,96334.73
2018-09-10T07:25:12.595Z,96333.45
2018-09-10T07:27:47.067Z,96336.90
2018-09-10T07:30:21.980Z,96332.78
2018-09-10T07:32:56.324Z,96328.53
2018-09-10T07:35:30.693Z,96332.00
2018-09-10T07:38:05.637Z,96323.81
2018-09-10T07:40:40.143Z,96332.80
2018-09-10T07:43:14.756Z,96323.16
2018-09-10T07:45:49.148Z,96326.06
2018-09-10T07:48:23.585Z,96334.55
2018-09-10T07:50:58.464Z,96342.02
2018-09-10T07:53:33.288Z,96336.40
2018-09-10T07:56:08.004Z,96346.11
2018-09-10T07:58:42.700Z,96350.39
2018-09-10T08:01:17.452Z,96345.15
2018-09-10T08:03:52.232Z,96352.64
2018-09-10T08:06:26.566Z,96358.42
2018-09-10T08:09:01.248Z,96361.36
2018-09-10T08:11:41.151Z,96363.30
2018-09-10T08:14:15.511Z,96362.49
2018-09-10T08:16:50.032Z,96363.47
2018-09-10T08:19:25.712Z,96372.54
2018-09-10T08:22:00.464Z,96375.70
2018-09-10T08:24:35.256Z,96366.45
2018-09-10T08:27:10.428Z,96364.23
2018-09-10T08:29:44.955Z,96369.02
2018-09-10T08:32:19.487Z,96371.63
2018-09-10T08:34:53.992Z,96368.00
2018-09-10T08:37:29.337Z,96373.30
2018-09-10T08:40:05.182Z,96380.04
2018-09-10T08:42:40.541Z,96372.31
2018-09-10T08:45:15.601Z,96365.11
2018-09-10T08:47:50.920Z,96366.42
2018-09-10T08:50:25.408Z,96363.23
2018-09-10T08:53:00.314Z,96361.19
2018-09-10T08:55:35.058Z,96361.39
2018-09-10T08:58:09.832Z,96359.63
2018-09-10T09:00:44.636Z,96355.98
2018-09-10T09:03:18.992Z,96353.03
2018-09-10T09:05:54.102Z,96356.00
2018-09-10T09:08:28.948Z,96350.37
2018-09-10T09:11:03.684Z,96346.12
2018-09-10T09:13:37.997Z,96355.47
2018-09-10T09:16:12.720Z,96357.78
2018-09-10T09:18:47.757Z,96353.88
2018-09-10T09:21:22.648Z,96351.27
2018-09-10T09:23:57.352Z,96349.23
2018-09-10T09:26:32.232Z,96354.29
2018-09-10T09:29:06.788Z,96357.56
2018-09-10T09:31:41.231Z,96357.96
2018-09-10T09:34:15.696Z,96358.73
2018-09-10T09:36:55.873Z,96362.80
2018-09-10T09:39:35.645Z,96367.08
2018-09-10T09:42:15.512Z,96349.58
2018-09-10T09:44:55.625Z,96355.54
2018-09-10T09:47:30.182Z,96348.71
2018-09-10T09:50:04.604Z,96348.51
2018-09-10T09:52:39.165Z,96344.36
2018-09-10T09:55:13.957Z,96342.39
2018-09-10T09:57:48.368Z,96333.08
2018-09-10T10:00:28.100Z,96326.06
2018-09-10T10:03:08.050Z,96326.67
2018-09-10T10:05:43.912Z,96322.82
2018-09-10T10:08:18.824Z,96316.47
2018-09-10T10:10:53.120Z,96319.78
2018-09-10T10:13:27.467Z,96320.58
2018-09-10T10:16:02.083Z,96321.93
2018-09-10T10:18:36.687Z,96322.99
2018-09-10T10:21:11.046Z,96328.61
2018-09-10T10:23:45.342Z,96321.64
2018-09-10T10:26:20.150Z,96318.47
2018-09-10T10:28:54.646Z,96325.05
2018-09-10T10:31:29.156Z,96331.75
2018-09-10T10:34:03.825Z,96335.28
2018-09-10T10:36:38.120Z,96332.10
2018-09-10T10:39:12.930Z,96332.59
2018-09-10T10:41:47.875Z,96326.75
2018-09-10T10:44:22.243Z,96334.70
2018-09-10T10:46:56.716Z,96330.95
2018-09-10T10:49:31.151Z,96324.17
2018-09-10T10:52:05.900Z,96326.13
2018-09-10T10:54:40.343Z,96318.52
2018-09-10T10:57:14.664Z,96312.59
2018-09-10T10:59:49.006Z,96325.50
2018-09-10T11:02:23.372Z,96324.68
2018-09-10T11:04:57.667Z,96321.58
2018-09-10T11:07:31.968Z,96323.27
2018-09-10T11:10:07.072Z,96321.67
2018-09-10T11:12:41.533Z,96316.56
2018-09-10T11:15:16.126Z,96309.28
2018-09-10T11:17:50.442Z,96308.19
2018-09-10T11:20:24.700Z,96312.01
2018-09-10T11:22:59.211Z,96309.52
2018-09-10T11:25:33.801Z,96311.59
2018-09-10T11:28:08.584Z,96301.91
2018-09-10T11:30:43.688Z,96300.44
2018-09-10T11:33:18.184Z,96300.03
2018-09-10T11:35:53.766Z,96310.73
2018-09-10T11:38:28.105Z,96308.66
2018-09-10T11:41:03.172Z,96311.66
2018-09-10T11:43:37.840Z,96308.78
2018-09-10T11:46:12.324Z,96312.67
2018-09-10T11:48:46.699Z,96307.27
2018-09-10T11:51:21.393Z,96314.24
2018-09-10T11:53:55.731Z,96309.58
2018-09-10T11:56:30.133Z,96305.90
2018-09-10T11:59:04.779Z,96308.30
2018-09-10T12:01:39.251Z,96310.44
2018-09-10T12:04:15.587Z,96304.30
2018-09-10T12:06:50.193Z,96308.79
2018-09-10T12:09:24.578Z,96303.93
2018-09-10T12:11:59.033Z,96302.58
2018-09-10T12:14:33.723Z,96310.34
2018-09-10T12:17:08.212Z,96306.17
2018-09-10T12:19:42.903Z,96309.38
2018-09-10T12:22:17.511Z,96315.27
2018-09-10T12:24:52.149Z,96311.80
2018-09-10T12:27:26.764Z,96323.52
2018-09-10T12:30:01.516Z,96320.81
2018-09-10T12:32:36.279Z,96321.07
2018-09-10T12:35:10.701Z,96317.36
2018-09-10T12:37:44.980Z,96319.49
2018-09-10T12:40:19.757Z,96309.36
2018-09-10T12:42:54.174Z,96308.29
2018-09-10T12:45:28.689Z,96305.59
2018-09-10T12:48:03.334Z,96297.81
2018-09-10T12:50:38.104Z,96302.36
2018-09-10T12:53:12.592Z,96296.97
2018-09-10T12:55:47.009Z,96294.88
2018-09-10T12:58:21.856Z,96295.17
2018-09-10T13:00:56.120Z,96298.66
2018-09-10T13:03:30.410Z,96283.14
2018-09-10T13:06:05.177Z,96290.61
2018-09-10T13:08:39.977Z,96296.56
2018-09-10T13:11:15.000Z,96286.14
2018-09-10T13:13:50.007Z,96286.16
2018-09-10T13:16:24.677Z,96287.20
2018-09-10T13:18:59.240Z,96284.24
2018-09-10T13:21:33.740Z,96282.09
2018-09-10T13:24:08.611Z,96282.06
2018-09-10T13:26:43.534Z,96286.95
2018-09-10T13:29:18.351Z,96278.68
2018-09-10T13:31:52.859Z,96278.16
2018-09-10T13:34:27.409Z,96278.94
2018-09-10T13:37:02.601Z,96282.15
2018-09-10T13:39:37.448Z,96274.38
2018-09-10T13:42:12.048Z,96270.12
2018-09-10T13:44:47.172Z,96273.34
2018-09-10T13:47:21.973Z,96267.14
2018-09-10T13:49:56.488Z,96271.41
2018-09-10T13:52:31.224Z,96268.76
2018-09-10T13:55:06.057Z,96266.94
2018-09-10T13:57:40.480Z,96263.42
2018-09-10T14:00:15.625Z,96258.91
2018-09-10T14:02:50.185Z,96257.04
2018-09-10T14:05:24.523Z,96252.73
2018-09-10T14:07:58.977Z,96256.17
2018-09-10T14:10:33.867Z,96254.75
2018-09-10T14:13:08.540Z,96256.99
2018-09-10T14:15:43.249Z,96247.68
2018-09-10T14:18:19.225Z,96249.84
2018-09-10T14:20:54.340Z,96255.95
2018-09-10T14:23:28.870Z,96244.75
2018-09-10T14:26:03.695Z,96250.39
2018-09-10T14:28:38.484Z,96238.86
2018-09-10T14:31:13.483Z,96237.27
2018-09-10T14:33:47.915Z,96231.35
2018-09-10T14:36:22.348Z,96235.06
2018-09-10T14:38:57.088Z,96230.16
2018-09-10T14:41:31.994Z,96226.66
2018-09-10T14:44:06.981Z,96227.84
2018-09-10T14:46:41.424Z,96231.59
2018-09-10T14:49:19.798Z,96230.28
2018-09-10T14:52:01.158Z,96236.09
2018-09-10T14:54:36.992Z,96238.79
2018-09-10T14:57:11.688Z,96234.52
2018-09-10T14:59:46.675Z,96225.94
2018-09-10T15:02:24.430Z,96228.64
2018-09-10T15:04:58.867Z,96245.51
2018-09-10T15:07:33.546Z,96245.26
2018-09-10T15:10:09.081Z,96243.92
2018-09-10T15:12:43.557Z,96249.81
2018-09-10T15:15:18.385Z,96253.83
2018-09-10T15:17:52.825Z,96240.73
2018-09-10T15:20:27.697Z,96243.97
2018-09-10T15:23:02.780Z,96248.27
2018-09-10T15:25:37.442Z,96245.80
2018-09-10T15:28:11.968Z,96235.91
2018-09-10T15:30:46.480Z,96243.87
2018-09-10T15:33:21.416Z,96242.03
2018-09-10T15:35:56.033Z,96241.53
2018-09-10T15:38:31.042Z,96240.14
2018-09-10T15:41:05.999Z,96238.27
2018-09-10T15:43:41.355Z,96241.96
2018-09-10T15:46:20.424Z,96236.81
2018-09-10T15:48:55.431Z,96231.25
2018-09-10T15:51:32.070Z,96236.02
2018-09-10T15:54:07.091Z,96230.94
2018-09-10T15:56:41.872Z,96230.30
2018-09-10T15:59:18.472Z,96237.48
2018-09-10T16:01:53.137Z,96239.89
2018-09-10T16:04:27.576Z,96234.89
2018-09-10T16:07:02.175Z,96242.67
2018-09-10T16:09:37.332Z,96244.05
2018-09-10T16:12:12.328Z,96245.95
2018-09-10T16:14:46.857Z,96240.59
2018-09-10T16:17:21.427Z,96248.00
2018-09-10T16:19:56.626Z,96247.94
2018-09-10T16:22:31.639Z,96251.47
2018-09-10T16:25:06.767Z,96248.48
2018-09-10T16:27:41.921Z,96251.07
2018-09-10T16:30:16.636Z,96254.26
2018-09-10T16:32:51.090Z,96252.10
2018-09-10T16:35:26.107Z,96252.17
2018-09-10T16:38:00.495Z,96251.27
2018-09-10T16:40:35.004Z,96254.61
2018-09-10T16:43:09.772Z,96253.40
2018-09-10T16:45:44.173Z,96258.00
2018-09-10T16:48:18.676Z,96260.72
2018-09-10T16:50:55.379Z,96253.64
2018-09-10T16:53:29.688Z,96253.73
2018-09-10T16:56:04.171Z,96253.30
2018-09-10T16:58:38.871Z,96267.97
2018-09-10T17:01:13.862Z,96263.07
2018-09-10T17:03:48.704Z,96261.82
2018-09-10T17:06:23.253Z,96270.68
2018-09-10T17:08:57.814Z,96263.37
2018-09-10T17:11:32.780Z,96273.88
2018-09-10T17:14:07.545Z,96274.00
2018-09-10T17:16:42.204Z,96273.87
2018-09-10T17:19:16.597Z,96279.84
2018-09-10T17:21:51.473Z,96286.36
2018-09-10T17:24:25.935Z,96285.45
2018-09-10T17:27:00.488Z,96281.09
2018-09-10T17:29:34.832Z,96276.20
2018-09-10T17:32:09.583Z,96280.59
2018-09-10T17:34:44.326Z,96278.23
2018-09-10T17:37:19.578Z,96277.64
2018-09-10T17:39:54.444Z,96286.48
2018-09-10T17:42:28.835Z,96279.53
2018-09-10T17:45:03.594Z,96292.92
2018-09-10T17:47:39.413Z,96295.36
2018-09-10T17:50:14.961Z,96301.84
2018-09-10T17:52:51.439Z,96302.44
2018-09-10T17:55:25.844Z,96301.02
2018-09-10T17:58:00.829Z,96309.02
2018-09-10T18:00:39.442Z,96306.55
2018-09-10T18:03:14.130Z,96311.72
2018-09-10T18:05:48.480Z,96312.86
2018-09-10T18:08:23.424Z,96316.36
2018-09-10T18:10:59.321Z,96321.73
2018-09-10T18:13:34.220Z,96328.20
2018-09-10T18:16:09.019Z,96323.79
2018-09-10T18:18:44.946Z,96325.95
2018-09-10T18:21:21.091Z,96327.91
2018-09-10T18:23:56.180Z,96327.28
2018-09-10T18:26:30.820Z,96332.57
2018-09-10T18:29:05.750Z,96342.83
2018-09-10T18:31:40.333Z,96341.91
2018-09-10T18:34:19.954Z,96348.52
2018-09-10T18:36:58.709Z,96345.98
2018-09-10T18:39:33.308Z,96349.89
2018-09-10T18:42:08.160Z,96346.88
2018-09-10T18:44:42.752Z,96341.59
2018-09-10T18:47:18.889Z,96348.71
2018-09-10T18:49:54.650Z,96354.74
2018-09-10T18:52:29.093Z,96350.34
2018-09-10T18:55:05.658Z,96355.99
2018-09-10T18:57:40.577Z,96362.41
2018-09-10T19:00:15.392Z,96362.58
2018-09-10T19:02:50.852Z,96362.48
2018-09-10T19:05:25.136Z,96357.59
2018-09-10T19:07:59.534Z,96353.21
2018-09-10T19:10:36.550Z,96350.41
2018-09-10T19:13:11.220Z,96351.09
2018-09-10T19:15:45.628Z,96347.28
2018-09-10T19:18:20.548Z,96347.28
2018-09-10T19:20:57.108Z,96347.80
2018-09-10T19:23:32.113Z,96344.80
2018-09-10T19:26:07.060Z,96348.11
2018-09-10T19:28:41.474Z,96343.73
2018-09-10T19:31:18.127Z,96344.14
2018-09-10T19:33:53.247Z,96346.84
2018-09-10T19:36:27.629Z,96341.13
2018-09-10T19:39:04.043Z,96347.11
2018-09-10T19:41:39.361Z,96349.09
2018-09-10T19:44:18.850Z,96355.41
2018-09-10T19:46:55.024Z,96353.06
2018-09-10T19:49:33.633Z,96346.89
2018-09-10T19:54:47.876Z,96350.16
2018-09-10T19:57:23.766Z,96352.64
2018-09-10T20:00:01.295Z,96359.23
2018-09-10T20:02:38.374Z,96357.66
2018-09-10T20:05:13.212Z,96352.16
2018-09-10T20:07:51.586Z,96353.73
2018-09-10T20:10:26.160Z,96354.39
2018-09-10T20:13:05.105Z,96357.53
2018-09-10T20:15:40.020Z,96361.11
2018-09-10T20:18:24.816Z,96362.06
2018-09-10T20:21:00.711Z,96357.55
2018-09-10T20:23:35.270Z,96357.17
2018-09-10T20:26:10.447Z,96365.50
2018-09-10T20:28:45.348Z,96370.88
2018-09-10T20:31:19.971Z,96366.03
2018-09-10T20:34:06.499Z,96366.89
2018-09-10T20:36:51.068Z,96359.84
2018-09-10T20:39:25.544Z,96365.59
2018-09-10T20:42:02.324Z,96370.86
2018-09-10T20:44:36.936Z,96373.46
2018-09-10T20:47:11.538Z,96378.94
2018-09-10T20:49:46.195Z,96381.48
2018-09-10T20:52:21.677Z,96391.61
2018-09-10T20:54:56.216Z,96381.59
2018-09-10T20:57:30.958Z,96392.03
2018-09-10T21:00:05.483Z,96400.48
2018-09-10T21:02:40.064Z,96393.09
2018-09-10T21:05:14.523Z,96393.52
2018-09-10T21:07:48.968Z,96397.17
2018-09-10T21:10:23.690Z,96394.45
2018-09-10T21:12:58.463Z,96401.84
2018-09-10T21:15:42.704Z,96401.88
2018-09-10T21:18:21.175Z,96401.37
2018-09-10T21:20:55.839Z,96395.17
2018-09-10T21:23:32.617Z,96388.13
2018-09-10T21:26:07.977Z,96401.39
2018-09-10T21:28:42.463Z,96403.41
2018-09-10T21:31:16.995Z,96402.22
2018-09-10T21:33:51.764Z,96401.40
2018-09-10T21:36:26.113Z,96401.81
2018-09-10T21:39:00.943Z,96396.97
2018-09-10T21:41:35.993Z,96396.97
2018-09-10T21:44:10.937Z,96395.67
2018-09-10T21:46:45.983Z,96396.87
2018-09-10T21:49:29.067Z,96399.52
2018-09-10T21:52:04.168Z,96394.05
2018-09-10T21:54:39.234Z,96400.11
2018-09-10T21:57:14.787Z,96398.60
2018-09-10T21:59:49.723Z,96404.37
2018-09-10T22:02:24.460Z,96409.12
2018-09-10T22:04:59.016Z,96410.64
2018-09-10T22:07:33.458Z,96416.58
2018-09-10T22:10:08.335Z,96409.42
2018-09-10T22:12:43.212Z,96415.27
2018-09-10T22:15:17.974Z,96410.52
2018-09-10T22:17:52.799Z,96403.65
2018-09-10T22:20:27.832Z,96398.09
2018-09-10T22:23:02.428Z,96406.67
2018-09-10T22:25:36.947Z,96405.38
2018-09-10T22:28:11.657Z,96388.67
2018-09-10T22:30:46.300Z,96397.66
2018-09-10T22:33:20.979Z,96389.34
2018-09-10T22:35:55.483Z,96385.62
2018-09-10T22:38:30.416Z,96387.73
2018-09-10T22:41:05.497Z,96388.75
2018-09-10T22:43:40.248Z,96385.08
2018-09-10T22:46:15.056Z,96386.91
2018-09-10T22:48:49.734Z,96392.45
2018-09-10T22:51:24.294Z,96393.57
2018-09-10T22:53:58.836Z,96391.24
2018-09-10T22:56:34.107Z,96386.50
2018-09-10T22:59:08.535Z,96393.16
2018-09-10T23:01:44.338Z,96389.30
2018-09-10T23:04:18.780Z,96384.45
2018-09-10T23:06:54.427Z,96386.06
2018-09-10T23:12:36.310Z,96380.11
2018-09-10T23:15:11.704Z,96385.16
2018-09-10T23:17:46.215Z,96389.39
2018-09-10T23:20:20.655Z,96385.25
2018-09-10T23:22:55.340Z,96385.86
2018-09-10T23:25:33.225Z,96390.20
2018-09-10T23:28:08.096Z,96383.13
2018-09-10T23:30:43.066Z,96388.28
2018-09-10T23:33:17.375Z,96384.88
2018-09-10T23:35:52.080Z,96389.42
2018-09-10T23:38:26.511Z,96400.64
2018-09-10T23:41:00.955Z,96394.45
2018-09-10T23:43:35.432Z,96395.16
2018-09-10T23:46:09.889Z,96394.95
2018-09-10T23:48:44.654Z,96391.52
2018-09-10T23:51:19.000Z,96393.94
2018-09-10T23:53:53.746Z,96392.92
2018-09-10T23:56:28.703Z,96393.73
2018-09-10T23:59:02.995Z,96385.35
